createdAt,value
2018-09-27T00:01:17.982Z,102348.32
2018-09-27T00:03:47.008Z,102343.70
2018-09-27T00:06:17.683Z,102339.53
2018-09-27T00:08:46.700Z,102339.58
2018-09-27T00:11:15.638Z,102339.58
2018-09-27T00:13:44.593Z,102337.69
2018-09-27T00:16:13.584Z,102329.73
2018-09-27T00:18:42.620Z,102335.95
2018-09-27T00:21:11.563Z,102335.84
2018-09-27T00:23:40.495Z,102341.53
2018-09-27T00:26:09.663Z,102345.59
2018-09-27T00:28:38.666Z,102336.84
2018-09-27T00:31:07.883Z,102340.77
2018-09-27T00:33:36.965Z,102336.77
2018-09-27T00:36:06.173Z,102337.80
2018-09-27T00:38:35.623Z,102338.66
2018-09-27T00:41:04.578Z,102340.05
2018-09-27T00:43:33.387Z,102340.58
2018-09-27T00:46:02.352Z,102341.12
2018-09-27T00:48:31.350Z,102337.59
2018-09-27T00:51:00.361Z,102337.28
2018-09-27T00:53:32.881Z,102332.76
2018-09-27T00:56:01.759Z,102331.61
2018-09-27T00:58:30.789Z,102333.14
2018-09-27T01:00:59.711Z,102336.20
2018-09-27T01:03:28.744Z,102329.50
2018-09-27T01:05:57.656Z,102331.65
2018-09-27T01:08:26.611Z,102330.16
2018-09-27T01:10:55.550Z,102330.16
2018-09-27T01:13:24.379Z,102324.16
2018-09-27T01:15:53.172Z,102323.02
2018-09-27T01:18:22.068Z,102325.70
2018-09-27T01:20:50.948Z,102324.02
2018-09-27T01:23:19.836Z,102322.02
2018-09-27T01:25:48.663Z,102320.83
2018-09-27T01:28:17.473Z,102319.64
2018-09-27T01:30:46.405Z,102316.95
2018-09-27T01:33:15.289Z,102321.14
2018-09-27T01:35:44.193Z,102317.64
2018-09-27T01:38:13.120Z,102311.13
2018-09-27T01:40:42.028Z,102317.67
2018-09-27T01:43:10.945Z,102310.94
2018-09-27T01:45:39.849Z,102309.59
2018-09-27T01:48:08.715Z,102311.25
2018-09-27T01:50:37.644Z,102301.66
2018-09-27T01:53:06.679Z,102301.82
2018-09-27T01:55:35.563Z,102307.87
2018-09-27T01:58:04.584Z,102294.77
2018-09-27T02:00:33.489Z,102291.55
2018-09-27T02:03:02.282Z,102287.21
2018-09-27T02:05:31.205Z,102279.31
2018-09-27T02:08:00.204Z,102283.87
2018-09-27T02:10:29.099Z,102284.03
2018-09-27T02:12:58.150Z,102286.33
2018-09-27T02:15:27.168Z,102281.88
2018-09-27T02:17:56.032Z,102283.31
2018-09-27T02:20:24.914Z,102277.63
2018-09-27T02:22:53.834Z,102268.91
2018-09-27T02:25:22.759Z,102268.77
2018-09-27T02:27:51.574Z,102269.00
2018-09-27T02:30:20.524Z,102258.91
2018-09-27T02:32:49.461Z,102261.86
2018-09-27T02:35:18.285Z,102263.48
2018-09-27T02:37:47.240Z,102254.66
2018-09-27T02:40:16.333Z,102255.00
2018-09-27T02:42:45.345Z,102255.45
2018-09-27T02:45:14.116Z,102261.25
2018-09-27T02:47:44.647Z,102256.01
2018-09-27T02:50:13.577Z,102263.82
2018-09-27T02:52:42.502Z,102255.70
2018-09-27T02:55:11.484Z,102254.63
2018-09-27T02:57:40.507Z,102251.78
2018-09-27T03:00:09.520Z,102249.42
2018-09-27T03:02:38.369Z,102246.50
2018-09-27T03:05:07.694Z,102251.75
2018-09-27T03:07:36.650Z,102246.16
2018-09-27T03:10:05.704Z,102244.52
2018-09-27T03:12:34.528Z,102237.99
2018-09-27T03:15:03.436Z,102234.39
2018-09-27T03:17:32.415Z,102229.61
2018-09-27T03:20:01.425Z,102224.03
2018-09-27T03:22:30.395Z,102222.17
2018-09-27T03:24:59.291Z,102221.17
2018-09-27T03:27:28.265Z,102223.66
2018-09-27T03:29:57.123Z,102226.48
2018-09-27T03:32:25.922Z,102219.71
2018-09-27T03:34:54.801Z,102224.31
2018-09-27T03:37:23.727Z,102226.33
2018-09-27T03:39:52.670Z,102222.51
2018-09-27T03:42:21.433Z,102221.88
2018-09-27T03:44:50.283Z,102222.51
2018-09-27T03:47:19.132Z,102223.02
2018-09-27T03:49:48.021Z,102218.80
2018-09-27T03:52:16.869Z,102218.80
2018-09-27T03:54:45.719Z,102212.25
2018-09-27T03:57:14.714Z,102211.28
2018-09-27T03:59:43.661Z,102207.84
2018-09-27T04:02:12.565Z,102205.52
2018-09-27T04:04:41.441Z,102208.34
2018-09-27T04:07:10.388Z,102211.67
2018-09-27T04:09:39.258Z,102204.89
2018-09-27T04:12:08.267Z,102203.34
2018-09-27T04:14:37.180Z,102197.23
2018-09-27T04:17:06.143Z,102195.17
2018-09-27T04:19:35.074Z,102193.78
2018-09-27T04:22:04.068Z,102191.72
2018-09-27T04:24:33.089Z,102194.59
2018-09-27T04:27:01.988Z,102194.46
2018-09-27T04:29:30.850Z,102199.04
2018-09-27T04:31:59.729Z,102197.69
2018-09-27T04:34:28.743Z,102193.23
2018-09-27T04:36:57.705Z,102193.48
2018-09-27T04:39:26.708Z,102194.20
2018-09-27T04:41:55.733Z,102188.56
2018-09-27T04:44:24.645Z,102189.91
2018-09-27T04:46:53.605Z,102194.91
2018-09-27T04:49:22.460Z,102194.28
2018-09-27T04:51:51.465Z,102195.55
2018-09-27T04:54:20.456Z,102197.94
2018-09-27T04:56:49.307Z,102189.32
2018-09-27T04:59:18.368Z,102188.89
2018-09-27T05:01:47.365Z,102189.53
2018-09-27T05:04:16.366Z,102190.16
2018-09-27T05:06:45.224Z,102196.89
2018-09-27T05:09:14.168Z,102195.87
2018-09-27T05:11:43.122Z,102201.77
2018-09-27T05:14:12.152Z,102197.52
2018-09-27T05:16:41.089Z,102197.52
2018-09-27T05:19:10.089Z,102192.85
2018-09-27T05:21:39.086Z,102188.09
2018-09-27T05:24:08.056Z,102187.29
2018-09-27T05:26:36.990Z,102186.75
2018-09-27T05:29:05.987Z,102185.34
2018-09-27T05:31:34.863Z,102188.34
2018-09-27T05:34:03.791Z,102189.69
2018-09-27T05:36:32.733Z,102190.41
2018-09-27T05:39:01.747Z,102192.38
2018-09-27T05:41:30.615Z,102193.05
2018-09-27T05:43:59.503Z,102188.02
2018-09-27T05:46:28.371Z,102188.20
2018-09-27T05:48:57.324Z,102191.23
2018-09-27T05:51:26.179Z,102193.59
2018-09-27T05:53:55.129Z,102187.43
2018-09-27T05:56:24.139Z,102189.41
2018-09-27T05:58:53.057Z,102195.13
2018-09-27T06:01:21.884Z,102192.14
2018-09-27T06:03:50.947Z,102190.91
2018-09-27T06:06:19.899Z,102189.17
2018-09-27T06:08:48.836Z,102190.97
2018-09-27T06:11:17.694Z,102188.70
2018-09-27T06:13:46.725Z,102186.54
2018-09-27T06:16:15.705Z,102186.33
2018-09-27T06:18:44.697Z,102181.50
2018-09-27T06:21:13.687Z,102178.95
2018-09-27T06:23:42.617Z,102183.09
2018-09-27T06:26:11.765Z,102177.93
2018-09-27T06:28:40.729Z,102183.95
2018-09-27T06:31:09.864Z,102186.16
2018-09-27T06:33:38.891Z,102190.80
2018-09-27T06:36:08.179Z,102190.52
2018-09-27T06:38:37.285Z,102190.33
2018-09-27T06:41:06.262Z,102185.83
2018-09-27T06:43:35.329Z,102193.75
2018-09-27T06:46:04.287Z,102188.80
2018-09-27T06:48:33.237Z,102185.92
2018-09-27T06:51:02.314Z,102187.56
2018-09-27T06:53:31.169Z,102188.41
2018-09-27T06:56:00.193Z,102184.36
2018-09-27T06:58:29.057Z,102182.94
2018-09-27T07:00:57.976Z,102184.06
2018-09-27T07:03:26.816Z,102179.80
2018-09-27T07:05:55.848Z,102178.05
2018-09-27T07:08:24.823Z,102183.34
2018-09-27T07:10:53.771Z,102182.39
2018-09-27T07:13:22.708Z,102171.59
2018-09-27T07:15:51.585Z,102170.53
2018-09-27T07:18:20.511Z,102172.83
2018-09-27T07:20:49.574Z,102171.98
2018-09-27T07:23:18.573Z,102171.66
2018-09-27T07:25:47.551Z,102168.95
2018-09-27T07:28:16.449Z,102167.28
2018-09-27T07:30:45.343Z,102176.44
2018-09-27T07:33:15.428Z,102172.61
2018-09-27T07:35:44.325Z,102172.61
2018-09-27T07:38:13.435Z,102173.05
2018-09-27T07:40:42.349Z,102173.27
2018-09-27T07:43:13.453Z,102176.59
2018-09-27T07:45:42.468Z,102175.86
2018-09-27T07:48:11.459Z,102174.32
2018-09-27T07:50:40.522Z,102181.59
2018-09-27T07:53:10.409Z,102180.16
2018-09-27T07:55:39.398Z,102173.72
2018-09-27T07:58:08.475Z,102171.43
2018-09-27T08:00:37.465Z,102170.42
2018-09-27T08:03:06.463Z,102174.80
2018-09-27T08:05:35.400Z,102165.13
2018-09-27T08:08:04.316Z,102171.27
2018-09-27T08:10:33.346Z,102167.93
2018-09-27T08:13:03.520Z,102168.58
2018-09-27T08:15:32.511Z,102169.29
2018-09-27T08:18:01.419Z,102168.98
2018-09-27T08:20:30.357Z,102168.76
2018-09-27T08:22:59.220Z,102164.69
2018-09-27T08:25:28.185Z,102161.56
2018-09-27T08:27:57.096Z,102164.05
2018-09-27T08:30:25.985Z,102157.80
2018-09-27T08:32:54.958Z,102165.39
2018-09-27T08:35:23.873Z,102158.09
2018-09-27T08:37:52.989Z,102156.55
2018-09-27T08:40:22.013Z,102155.13
2018-09-27T08:42:51.072Z,102147.95
2018-09-27T08:45:20.250Z,102151.77
2018-09-27T08:47:49.155Z,102149.86
2018-09-27T08:50:18.123Z,102146.96
2018-09-27T08:52:47.048Z,102139.22
2018-09-27T08:55:17.011Z,102141.69
2018-09-27T08:57:45.943Z,102129.41
2018-09-27T09:00:14.937Z,102115.52
2018-09-27T09:02:43.886Z,102106.85
2018-09-27T09:05:13.914Z,102099.39
2018-09-27T09:07:42.936Z,102100.85
2018-09-27T09:10:12.007Z,102097.59
2018-09-27T09:12:41.060Z,102100.47
2018-09-27T09:15:11.953Z,102098.45
2018-09-27T09:17:40.976Z,102099.38
2018-09-27T09:20:10.025Z,102101.05
2018-09-27T09:22:39.047Z,102087.49
2018-09-27T09:25:08.162Z,102084.55
2018-09-27T09:27:37.167Z,102085.78
2018-09-27T09:30:06.125Z,102077.92
2018-09-27T09:32:35.043Z,102070.85
2018-09-27T09:35:04.049Z,102075.20
2018-09-27T09:37:32.902Z,102068.52
2018-09-27T09:40:01.725Z,102069.49
2018-09-27T09:42:30.684Z,102062.86
2018-09-27T09:45:00.684Z,102054.55
2018-09-27T09:47:29.708Z,102056.95
2018-09-27T09:49:58.719Z,102050.63
2018-09-27T09:52:27.611Z,102050.15
2018-09-27T09:54:58.745Z,102040.33
2018-09-27T09:57:27.661Z,102040.22
2018-09-27T09:59:56.560Z,102036.98
2018-09-27T10:02:25.571Z,102035.77
2018-09-27T10:04:55.625Z,102029.27
2018-09-27T10:07:24.628Z,102029.92
2018-09-27T10:09:53.561Z,102020.34
2018-09-27T10:12:22.546Z,102024.30
2018-09-27T10:14:52.569Z,102021.05
2018-09-27T10:17:21.530Z,102013.86
2018-09-27T10:19:50.482Z,102013.09
2018-09-27T10:22:19.383Z,102004.01
2018-09-27T10:24:49.459Z,101994.42
2018-09-27T10:27:18.401Z,101996.33
2018-09-27T10:29:47.676Z,101995.15
2018-09-27T10:32:16.633Z,101987.45
2018-09-27T10:34:45.675Z,101991.73
2018-09-27T10:37:14.482Z,101981.66
2018-09-27T10:39:43.583Z,101980.24
2018-09-27T10:42:12.642Z,101975.02
2018-09-27T10:44:42.767Z,101979.63
2018-09-27T10:47:11.731Z,101979.47
2018-09-27T10:49:40.826Z,101979.77
2018-09-27T10:52:09.779Z,101970.78
2018-09-27T10:54:39.896Z,101973.34
2018-09-27T10:57:08.822Z,101969.84
2018-09-27T10:59:37.868Z,101961.52
2018-09-27T11:02:07.037Z,101961.47
2018-09-27T11:04:36.081Z,101951.51
2018-09-27T11:07:05.018Z,101949.84
2018-09-27T11:09:33.935Z,101951.77
2018-09-27T11:12:02.925Z,101946.56
2018-09-27T11:14:33.103Z,101944.61
2018-09-27T11:17:02.107Z,101933.81
2018-09-27T11:19:31.107Z,101928.58
2018-09-27T11:22:00.141Z,101925.23
2018-09-27T11:24:29.037Z,101919.95
2018-09-27T11:26:58.016Z,101917.53
2018-09-27T11:29:32.059Z,101914.19
2018-09-27T11:32:05.936Z,101909.48
2018-09-27T11:34:35.103Z,101900.26
2018-09-27T11:37:04.155Z,101899.50
2018-09-27T11:39:33.057Z,101890.76
2018-09-27T11:42:01.958Z,101884.66
2018-09-27T11:44:30.918Z,101882.91
2018-09-27T11:46:59.814Z,101873.96
2018-09-27T11:49:28.907Z,101866.14
2018-09-27T11:51:57.734Z,101859.69
2018-09-27T11:56:54.609Z,101845.84
2018-09-27T11:59:23.528Z,101840.55
2018-09-27T12:01:52.425Z,101836.78
2018-09-27T12:04:21.373Z,101826.72
2018-09-27T12:06:50.246Z,101823.47
2018-09-27T12:09:19.224Z,101812.30
2018-09-27T12:11:48.180Z,101810.53
2018-09-27T12:14:17.197Z,101810.40
2018-09-27T12:16:46.297Z,101812.41
2018-09-27T12:19:15.182Z,101804.00
2018-09-27T12:21:44.222Z,101800.50
2018-09-27T12:24:13.353Z,101792.86
2018-09-27T12:26:42.440Z,101795.26
2018-09-27T12:29:11.343Z,101790.74
2018-09-27T12:31:40.337Z,101787.48
2018-09-27T12:34:09.344Z,101787.20
2018-09-27T12:36:40.492Z,101780.11
2018-09-27T12:39:11.197Z,101770.57
2018-09-27T12:41:40.308Z,101771.99
2018-09-27T12:44:09.387Z,101768.53
2018-09-27T12:46:40.456Z,101767.50
2018-09-27T12:49:09.497Z,101762.08
2018-09-27T12:51:38.428Z,101760.99
2018-09-27T12:54:07.297Z,101757.75
2018-09-27T12:56:36.309Z,101747.36
2018-09-27T12:59:05.289Z,101743.58
2018-09-27T13:01:34.320Z,101744.70
2018-09-27T13:04:03.253Z,101731.60
2018-09-27T13:06:32.288Z,101726.67
2018-09-27T13:09:01.336Z,101732.97
2018-09-27T13:11:30.272Z,101732.34
2018-09-27T13:13:59.201Z,101728.56
2018-09-27T13:16:29.212Z,101721.45
2018-09-27T13:18:58.287Z,101715.91
2018-09-27T13:21:27.413Z,101697.38
2018-09-27T13:23:56.539Z,101697.23
2018-09-27T13:26:25.592Z,101699.12
2018-09-27T13:28:54.469Z,101692.92
2018-09-27T13:31:23.466Z,101688.05
2018-09-27T13:33:52.445Z,101683.08
2018-09-27T13:36:21.371Z,101674.30
2018-09-27T13:38:50.436Z,101670.84
2018-09-27T13:41:19.490Z,101666.42
2018-09-27T13:43:48.454Z,101664.15
2018-09-27T13:46:18.432Z,101667.91
2018-09-27T13:48:47.429Z,101661.23
2018-09-27T13:51:16.479Z,101658.83
2018-09-27T13:53:45.391Z,101660.53
2018-09-27T13:56:14.412Z,101647.13
2018-09-27T13:58:43.452Z,101650.11
2018-09-27T14:01:12.434Z,101641.28
2018-09-27T14:03:41.415Z,101641.61
2018-09-27T14:06:15.408Z,101630.53
2018-09-27T14:08:44.489Z,101627.09
2018-09-27T14:11:13.463Z,101617.31
2018-09-27T14:13:42.390Z,101619.07
2018-09-27T14:16:11.531Z,101610.20
2018-09-27T14:18:40.389Z,101609.98
2018-09-27T14:21:09.301Z,101604.56
2018-09-27T14:23:38.225Z,101604.49
2018-09-27T14:26:15.861Z,101605.75
2018-09-27T14:28:44.796Z,101601.38
2018-09-27T14:31:13.645Z,101597.16
2018-09-27T14:33:42.547Z,101598.30
2018-09-27T14:36:11.476Z,101592.80
2018-09-27T14:38:40.613Z,101586.38
2018-09-27T14:41:09.688Z,101584.88
2018-09-27T14:43:38.646Z,101582.53
2018-09-27T14:46:07.719Z,101577.11
2018-09-27T14:48:36.671Z,101584.36
2018-09-27T14:51:05.566Z,101580.34
2018-09-27T14:53:34.569Z,101583.63
2018-09-27T14:56:03.595Z,101569.70
2018-09-27T14:58:32.611Z,101566.67
2018-09-27T15:01:01.548Z,101559.89
2018-09-27T15:03:30.593Z,101558.61
2018-09-27T15:05:59.445Z,101551.77
2018-09-27T15:08:30.529Z,101552.43
2018-09-27T15:10:59.507Z,101550.45
2018-09-27T15:13:28.541Z,101541.83
2018-09-27T15:15:57.507Z,101541.87
2018-09-27T15:18:26.569Z,101539.28
2018-09-27T15:20:55.474Z,101536.33
2018-09-27T15:23:24.485Z,101540.33
2018-09-27T15:25:53.354Z,101533.59
2018-09-27T15:28:23.380Z,101538.17
2018-09-27T15:30:52.464Z,101534.84
2018-09-27T15:33:21.349Z,101528.48
2018-09-27T15:35:50.149Z,101530.05
2018-09-27T15:38:26.484Z,101520.25
2018-09-27T15:40:55.339Z,101515.73
2018-09-27T15:43:24.342Z,101512.59
2018-09-27T15:45:53.295Z,101515.23
2018-09-27T15:48:22.256Z,101509.97
2018-09-27T15:50:51.132Z,101505.92
2018-09-27T15:53:19.993Z,101502.56
2018-09-27T15:55:49.103Z,101500.67
2018-09-27T15:58:18.012Z,101495.68
2018-09-27T16:00:47.106Z,101490.87
2018-09-27T16:03:16.078Z,101493.89
2018-09-27T16:05:45.030Z,101489.68
2018-09-27T16:08:14.109Z,101492.00
2018-09-27T16:10:42.948Z,101482.88
2018-09-27T16:13:11.840Z,101489.62
2018-09-27T16:17:14.457Z,101483.16
2018-09-27T16:19:43.323Z,101484.89
2018-09-27T16:22:12.153Z,101484.24
2018-09-27T16:24:41.392Z,101481.53
2018-09-27T16:27:10.385Z,101495.36
2018-09-27T16:29:39.394Z,101495.53
2018-09-27T16:32:08.391Z,101484.47
2018-09-27T16:34:37.382Z,101493.98
2018-09-27T16:37:06.431Z,101484.73
2018-09-27T16:39:35.398Z,101491.63
2018-09-27T16:42:04.659Z,101495.58
2018-09-27T16:44:33.943Z,101492.88
2018-09-27T16:47:03.167Z,101492.72
2018-09-27T16:49:32.383Z,101488.22
2018-09-27T16:52:01.556Z,101480.94
2018-09-27T16:54:30.710Z,101477.89
2018-09-27T16:56:59.915Z,101477.84
2018-09-27T16:59:29.131Z,101472.71
2018-09-27T17:01:58.576Z,101479.16
2018-09-27T17:04:27.879Z,101480.02
2018-09-27T17:06:57.297Z,101482.13
2018-09-27T17:09:26.484Z,101474.75
2018-09-27T17:11:55.633Z,101475.69
2018-09-27T17:14:24.928Z,101471.73
2018-09-27T17:16:54.297Z,101473.00
2018-09-27T17:19:23.492Z,101475.13
2018-09-27T17:21:52.795Z,101472.50
2018-09-27T17:24:22.195Z,101467.77
2018-09-27T17:26:51.593Z,101465.95
2018-09-27T17:29:20.959Z,101464.56
2018-09-27T17:31:50.289Z,101462.73
2018-09-27T17:34:19.691Z,101459.09
2018-09-27T17:36:49.037Z,101458.12
2018-09-27T17:39:18.489Z,101461.92
2018-09-27T17:41:47.910Z,101458.13
2018-09-27T17:44:17.372Z,101458.01
2018-09-27T17:46:46.965Z,101454.25
2018-09-27T17:49:16.323Z,101455.17
2018-09-27T17:51:45.792Z,101458.66
2018-09-27T17:54:15.194Z,101454.52
2018-09-27T17:56:44.632Z,101457.59
2018-09-27T17:59:14.648Z,101452.41
2018-09-27T18:01:44.202Z,101460.01
2018-09-27T18:04:13.565Z,101462.70
2018-09-27T18:06:42.936Z,101463.86
2018-09-27T18:09:13.498Z,101456.91
2018-09-27T18:11:43.157Z,101464.66
2018-09-27T18:14:12.665Z,101462.00
2018-09-27T18:16:42.101Z,101458.16
2018-09-27T18:19:11.557Z,101460.84
2018-09-27T18:21:41.062Z,101454.64
2018-09-27T18:24:10.548Z,101458.05
2018-09-27T18:26:40.066Z,101450.44
2018-09-27T18:29:09.432Z,101461.22
2018-09-27T18:31:39.167Z,101462.06
2018-09-27T18:34:08.615Z,101458.30
2018-09-27T18:36:38.012Z,101466.98
2018-09-27T18:39:10.496Z,101467.36
2018-09-27T18:41:39.998Z,101467.77
2018-09-27T18:44:09.836Z,101469.24
2018-09-27T18:46:39.579Z,101466.36
2018-09-27T18:49:09.698Z,101465.84
2018-09-27T18:51:40.118Z,101463.74
2018-09-27T18:54:09.591Z,101463.28
2018-09-27T18:56:38.997Z,101461.52
2018-09-27T18:59:09.084Z,101467.08
2018-09-27T19:01:38.737Z,101464.73
2018-09-27T19:04:08.265Z,101468.01
2018-09-27T19:06:37.700Z,101465.03
2018-09-27T19:09:10.207Z,101469.77
2018-09-27T19:11:40.017Z,101464.34
2018-09-27T19:14:09.498Z,101466.43
2018-09-27T19:16:39.297Z,101464.63
2018-09-27T19:19:09.852Z,101467.70
2018-09-27T19:21:40.287Z,101455.70
2018-09-27T19:24:09.637Z,101460.42
2018-09-27T19:26:39.152Z,101454.80
2018-09-27T19:29:08.725Z,101452.36
2018-09-27T19:31:38.612Z,101454.91
2018-09-27T19:34:08.161Z,101452.86
2018-09-27T19:36:37.697Z,101447.91
2018-09-27T19:39:09.377Z,101449.78
2018-09-27T19:41:39.058Z,101444.70
2018-09-27T19:44:08.712Z,101444.03
2018-09-27T19:46:38.122Z,101446.91
2018-09-27T19:49:07.621Z,101449.45
2018-09-27T19:51:37.048Z,101447.20
2018-09-27T19:54:06.642Z,101446.80
2018-09-27T19:56:36.037Z,101450.20
2018-09-27T19:59:05.570Z,101447.75
2018-09-27T20:01:35.036Z,101445.41
2018-09-27T20:04:04.474Z,101441.59
2018-09-27T20:06:34.764Z,101433.80
2018-09-27T20:09:07.421Z,101442.83
2018-09-27T20:11:37.828Z,101434.86
2018-09-27T20:14:07.627Z,101436.09
2018-09-27T20:16:37.351Z,101434.33
2018-09-27T20:19:08.024Z,101437.06
2018-09-27T20:21:38.127Z,101436.59
2018-09-27T20:24:08.756Z,101439.26
2018-09-27T20:26:38.244Z,101442.91
2018-09-27T20:29:07.909Z,101447.81
2018-09-27T20:31:37.565Z,101444.52
2018-09-27T20:34:07.155Z,101444.63
2018-09-27T20:36:36.677Z,101445.82
2018-09-27T20:39:06.808Z,101440.67
2018-09-27T20:41:36.472Z,101443.20
2018-09-27T20:44:05.948Z,101442.59
2018-09-27T20:46:35.407Z,101442.09
2018-09-27T20:49:04.920Z,101438.45
2018-09-27T20:51:34.409Z,101434.94
2018-09-27T20:54:03.963Z,101437.72
2018-09-27T20:56:33.871Z,101443.37
2018-09-27T20:59:03.312Z,101438.72
2018-09-27T21:01:32.754Z,101443.44
2018-09-27T21:04:02.159Z,101435.97
2018-09-27T21:06:31.549Z,101431.06
2018-09-27T21:09:02.972Z,101430.70
2018-09-27T21:11:32.376Z,101433.45
2018-09-27T21:14:01.753Z,101442.25
2018-09-27T21:16:30.867Z,101440.52
2018-09-27T21:18:59.940Z,101437.99
2018-09-27T21:21:28.948Z,101432.19
2018-09-27T21:23:58.019Z,101429.00
2018-09-27T21:26:27.086Z,101417.20
2018-09-27T21:28:57.037Z,101425.23
2018-09-27T21:31:25.931Z,101423.51
2018-09-27T21:33:54.946Z,101426.53
2018-09-27T21:36:24.185Z,101421.27
2018-09-27T21:38:54.271Z,101421.53
2018-09-27T21:41:23.273Z,101416.22
2018-09-27T21:43:52.368Z,101412.78
2018-09-27T21:46:21.265Z,101414.16
2018-09-27T21:48:50.219Z,101415.63
2018-09-27T21:51:19.239Z,101408.59
2018-09-27T21:53:48.327Z,101410.17
2018-09-27T21:56:17.357Z,101398.88
2018-09-27T21:58:46.253Z,101397.63
2018-09-27T22:01:15.142Z,101392.28
2018-09-27T22:03:44.015Z,101393.00
2018-09-27T22:06:13.005Z,101398.86
2018-09-27T22:08:42.009Z,101386.81
2018-09-27T22:11:11.108Z,101379.31
2018-09-27T22:13:40.003Z,101383.66
2018-09-27T22:16:08.984Z,101390.66
2018-09-27T22:18:38.903Z,101385.63
2018-09-27T22:21:07.988Z,101388.64
2018-09-27T22:23:36.971Z,101385.16
2018-09-27T22:26:05.973Z,101391.70
2018-09-27T22:28:35.308Z,101401.02
2018-09-27T22:31:04.257Z,101398.78
2018-09-27T22:33:33.167Z,101393.44
2018-09-27T22:36:02.094Z,101388.88
2018-09-27T22:38:32.368Z,101383.73
2018-09-27T22:41:01.416Z,101391.36
2018-09-27T22:43:30.360Z,101391.97
2018-09-27T22:45:59.263Z,101401.55
2018-09-27T22:48:28.057Z,101394.52
2018-09-27T22:50:57.267Z,101392.55
2018-09-27T22:53:26.300Z,101390.91
2018-09-27T22:55:55.232Z,101392.98
2018-09-27T22:58:24.068Z,101399.31
2018-09-27T23:00:53.324Z,101398.58
2018-09-27T23:03:22.296Z,101403.30
2018-09-27T23:05:51.621Z,101406.00
2018-09-27T23:08:20.600Z,101402.53
2018-09-27T23:10:49.774Z,101402.69
2018-09-27T23:13:18.603Z,101397.47
2018-09-27T23:15:47.582Z,101401.34
2018-09-27T23:18:16.416Z,101395.84
2018-09-27T23:20:45.344Z,101398.72
2018-09-27T23:23:14.189Z,101405.84
2018-09-27T23:25:43.029Z,101408.14
2018-09-27T23:28:11.966Z,101412.08
2018-09-27T23:30:40.957Z,101401.53
2018-09-27T23:33:09.778Z,101404.66
2018-09-27T23:35:38.632Z,101406.34
2018-09-27T23:38:07.538Z,101403.36
2018-09-27T23:40:36.464Z,101396.38
2018-09-27T23:43:05.676Z,101394.11
2018-09-27T23:45:34.649Z,101397.04
2018-09-27T23:48:03.497Z,101400.00
2018-09-27T23:50:32.674Z,101401.83
2018-09-27T23:53:01.564Z,101398.65
2018-09-27T23:55:30.576Z,101399.94
2018-09-27T23:57:59.599Z,101398.72
